sensor_id;sensor_type;location;lat;lon;timestamp;P1;durP1;ratioP1;P2;durP2;ratioP2
61570;SDS011;47463;49.884;10.010;2022-12-11T00:00:00;35.5;;;16.1;;
61570;SDS011;47463;49.884;10.010;2022-12-11T00:05:00;35.5;;;16.1;;
61570;SDS011;47463;49.884;10.010;2022-12-11T00:10:00;38.1;;;16.1;;
61570;SDS011;47463;49.884;10.010;2022-12-11T00:15:00;35.7;;;16.3;;
61570;SDS011;47463;49.884;10.010;2022-12-11T00:20:00;32.7;;;15.8;;
61570;SDS011;47463;49.884;10.010;2022-12-11T00:25:00;41.1;;;18.2;;
61570;SDS011;47463;49.884;10.010;2022-12-11T00:30:00;41.1;;;19.2;;
61570;SDS011;47463;49.884;10.010;2022-12-11T00:35:00;41.1;;;19.2;;
61570;SDS011;47463;49.884;10.010;2022-12-11T00:40:00;40;;;17.4;;
61570;SDS011;47463;49.884;10.010;2022-12-11T00:45:00;43.4;;;18.6;;
61570;SDS011;47463;49.884;10.010;2022-12-11T00:50:00;39.7;;;17.9;;
61570;SDS011;47463;49.884;10.010;2022-12-11T00:55:00;36.2;;;17.3;;
61570;SDS011;47463;49.884;10.010;2022-12-11T01:00:00;39.4;;;16.5;;
61570;SDS011;47463;49.884;10.010;2022-12-11T01:05:00;39.4;;;16.5;;
61570;SDS011;47463;49.884;10.010;2022-12-11T01:10:00;37.8;;;16.9;;
61570;SDS011;47463;49.884;10.010;2022-12-11T01:15:00;36;;;16.8;;
61570;SDS011;47463;49.884;10.010;2022-12-11T01:20:00;34.4;;;16.6;;
61570;SDS011;47463;49.884;10.010;2022-12-11T01:25:00;38.7;;;17;;
61570;SDS011;47463;49.884;10.010;2022-12-11T01:30:00;39.5;;;18;;
61570;SDS011;47463;49.884;10.010;2022-12-11T01:35:01;39.5;;;18;;
61570;SDS011;47463;49.884;10.010;2022-12-11T01:40:00;38.9;;;17.2;;
61570;SDS011;47463;49.884;10.010;2022-12-11T01:45:12;35.9;;;16;;
61570;SDS011;47463;49.884;10.010;2022-12-11T01:50:00;34.8;;;16.3;;
61570;SDS011;47463;49.884;10.010;2022-12-11T01:55:00;33.1;;;15.9;;
61570;SDS011;47463;49.884;10.010;2022-12-11T02:00:00;35.6;;;16.1;;
61570;SDS011;47463;49.884;10.010;2022-12-11T02:05:00;35.6;;;16.1;;
61570;SDS011;47463;49.884;10.010;2022-12-11T02:10:00;33.6;;;15.1;;
61570;SDS011;47463;49.884;10.010;2022-12-11T02:15:01;34;;;15;;
61570;SDS011;47463;49.884;10.010;2022-12-11T02:20:01;34.1;;;14.9;;
61570;SDS011;47463;49.884;10.010;2022-12-11T02:25:03;29.4;;;12.7;;
61570;SDS011;47463;49.884;10.010;2022-12-11T02:30:00;25.4;;;12;;
61570;SDS011;47463;49.884;10.010;2022-12-11T02:35:01;25.4;;;12;;
61570;SDS011;47463;49.884;10.010;2022-12-11T02:40:00;26.2;;;12.4;;
61570;SDS011;47463;49.884;10.010;2022-12-11T02:45:00;26.7;;;12;;
61570;SDS011;47463;49.884;10.010;2022-12-11T02:50:00;25.1;;;11.9;;
61570;SDS011;47463;49.884;10.010;2022-12-11T02:55:00;27.1;;;11.9;;
61570;SDS011;47463;49.884;10.010;2022-12-11T03:00:00;28.4;;;13;;
61570;SDS011;47463;49.884;10.010;2022-12-11T03:05:00;28.4;;;13;;
61570;SDS011;47463;49.884;10.010;2022-12-11T03:10:00;29.2;;;12.7;;
61570;SDS011;47463;49.884;10.010;2022-12-11T03:15:00;28.7;;;13.7;;
61570;SDS011;47463;49.884;10.010;2022-12-11T03:20:01;29.9;;;14.7;;
61570;SDS011;47463;49.884;10.010;2022-12-11T03:25:00;30.9;;;14.1;;
61570;SDS011;47463;49.884;10.010;2022-12-11T03:30:01;32.6;;;14.3;;
61570;SDS011;47463;49.884;10.010;2022-12-11T03:35:02;32.6;;;14.3;;
61570;SDS011;47463;49.884;10.010;2022-12-11T03:40:01;28.6;;;13.5;;
61570;SDS011;47463;49.884;10.010;2022-12-11T03:45:00;33.6;;;15;;
61570;SDS011;47463;49.884;10.010;2022-12-11T03:50:00;29.3;;;13.4;;
61570;SDS011;47463;49.884;10.010;2022-12-11T03:55:00;32.4;;;13.8;;
61570;SDS011;47463;49.884;10.010;2022-12-11T04:00:00;28.6;;;13.8;;
61570;SDS011;47463;49.884;10.010;2022-12-11T04:05:00;28.6;;;13.8;;
61570;SDS011;47463;49.884;10.010;2022-12-11T04:10:00;29.8;;;13.5;;
61570;SDS011;47463;49.884;10.010;2022-12-11T04:15:00;32.3;;;14.4;;
61570;SDS011;47463;49.884;10.010;2022-12-11T04:20:00;30.7;;;13.3;;
61570;SDS011;47463;49.884;10.010;2022-12-11T04:25:00;29.2;;;13.4;;
61570;SDS011;47463;49.884;10.010;2022-12-11T04:30:00;28.9;;;13.8;;
61570;SDS011;47463;49.884;10.010;2022-12-11T04:35:00;28.9;;;13.8;;
61570;SDS011;47463;49.884;10.010;2022-12-11T04:40:00;34.5;;;14.8;;
61570;SDS011;47463;49.884;10.010;2022-12-11T04:45:00;32.3;;;13.8;;
61570;SDS011;47463;49.884;10.010;2022-12-11T04:50:00;30.5;;;14;;
61570;SDS011;47463;49.884;10.010;2022-12-11T04:55:00;31.4;;;14.1;;
61570;SDS011;47463;49.884;10.010;2022-12-11T05:00:00;32.2;;;14.8;;
61570;SDS011;47463;49.884;10.010;2022-12-11T05:05:00;32.2;;;14.8;;
61570;SDS011;47463;49.884;10.010;2022-12-11T05:10:00;28.4;;;13.1;;
61570;SDS011;47463;49.884;10.010;2022-12-11T05:15:00;30.1;;;13.5;;
61570;SDS011;47463;49.884;10.010;2022-12-11T05:20:00;30.6;;;12.9;;
61570;SDS011;47463;49.884;10.010;2022-12-11T05:25:00;32.1;;;13.5;;
61570;SDS011;47463;49.884;10.010;2022-12-11T05:30:00;34.4;;;14.8;;
61570;SDS011;47463;49.884;10.010;2022-12-11T05:35:00;34.4;;;14.8;;
61570;SDS011;47463;49.884;10.010;2022-12-11T05:40:00;37;;;14.9;;
61570;SDS011;47463;49.884;10.010;2022-12-11T05:45:00;33;;;14.7;;
61570;SDS011;47463;49.884;10.010;2022-12-11T05:50:00;34.2;;;15.4;;
61570;SDS011;47463;49.884;10.010;2022-12-11T05:55:00;37.2;;;14.5;;
61570;SDS011;47463;49.884;10.010;2022-12-11T06:00:00;31.2;;;13.8;;
61570;SDS011;47463;49.884;10.010;2022-12-11T06:05:00;31.2;;;13.8;;
61570;SDS011;47463;49.884;10.010;2022-12-11T06:10:00;33.5;;;14.3;;
61570;SDS011;47463;49.884;10.010;2022-12-11T06:15:00;36.9;;;15.3;;
61570;SDS011;47463;49.884;10.010;2022-12-11T06:20:00;33.9;;;15;;
61570;SDS011;47463;49.884;10.010;2022-12-11T06:25:00;32.8;;;14;;
61570;SDS011;47463;49.884;10.010;2022-12-11T06:30:00;37;;;15.8;;
61570;SDS011;47463;49.884;10.010;2022-12-11T06:35:00;37;;;15.8;;
61570;SDS011;47463;49.884;10.010;2022-12-11T06:40:00;36;;;14.7;;
61570;SDS011;47463;49.884;10.010;2022-12-11T06:45:00;29.2;;;13.3;;
61570;SDS011;47463;49.884;10.010;2022-12-11T06:50:00;28.6;;;13.4;;
61570;SDS011;47463;49.884;10.010;2022-12-11T06:55:00;29.2;;;13.8;;
61570;SDS011;47463;49.884;10.010;2022-12-11T07:00:00;34;;;14.5;;
61570;SDS011;47463;49.884;10.010;2022-12-11T07:05:00;34;;;14.5;;
61570;SDS011;47463;49.884;10.010;2022-12-11T07:10:00;34.6;;;15;;
61570;SDS011;47463;49.884;10.010;2022-12-11T07:15:00;30.7;;;15;;
61570;SDS011;47463;49.884;10.010;2022-12-11T07:20:00;44.7;;;17;;
61570;SDS011;47463;49.884;10.010;2022-12-11T07:25:00;26.3;;;12.5;;
61570;SDS011;47463;49.884;10.010;2022-12-11T07:30:00;28.4;;;12.3;;
61570;SDS011;47463;49.884;10.010;2022-12-11T07:35:00;28.4;;;12.3;;
61570;SDS011;47463;49.884;10.010;2022-12-11T07:40:00;25.1;;;12.3;;
61570;SDS011;47463;49.884;10.010;2022-12-11T07:45:00;32.6;;;13.1;;
61570;SDS011;47463;49.884;10.010;2022-12-11T07:50:00;30;;;12.6;;
61570;SDS011;47463;49.884;10.010;2022-12-11T07:55:00;26.4;;;11.9;;
61570;SDS011;47463;49.884;10.010;2022-12-11T08:00:00;26.1;;;11;;
61570;SDS011;47463;49.884;10.010;2022-12-11T08:05:00;26.1;;;11;;
61570;SDS011;47463;49.884;10.010;2022-12-11T08:10:00;24.1;;;10.6;;
61570;SDS011;47463;49.884;10.010;2022-12-11T08:15:00;24.8;;;10.6;;
61570;SDS011;47463;49.884;10.010;2022-12-11T08:20:00;26.1;;;11.3;;
61570;SDS011;47463;49.884;10.010;2022-12-11T08:25:00;22.6;;;10.4;;
61570;SDS011;47463;49.884;10.010;2022-12-11T08:30:00;33.2;;;13.6;;
61570;SDS011;47463;49.884;10.010;2022-12-11T08:35:00;33.2;;;13.6;;
61570;SDS011;47463;49.884;10.010;2022-12-11T08:40:00;51.1;;;20.6;;
61570;SDS011;47463;49.884;10.010;2022-12-11T08:45:00;24.9;;;11.6;;
61570;SDS011;47463;49.884;10.010;2022-12-11T08:50:00;24.5;;;12.3;;
61570;SDS011;47463;49.884;10.010;2022-12-11T08:55:00;33.9;;;16.1;;
61570;SDS011;47463;49.884;10.010;2022-12-11T09:00:00;25.9;;;11.8;;
61570;SDS011;47463;49.884;10.010;2022-12-11T09:05:00;25.9;;;11.8;;
61570;SDS011;47463;49.884;10.010;2022-12-11T09:10:00;30.6;;;15.4;;
61570;SDS011;47463;49.884;10.010;2022-12-11T09:15:00;28.9;;;14.1;;
61570;SDS011;47463;49.884;10.010;2022-12-11T09:20:00;28.9;;;13.1;;
61570;SDS011;47463;49.884;10.010;2022-12-11T09:25:00;28;;;11.7;;
61570;SDS011;47463;49.884;10.010;2022-12-11T09:30:00;28.5;;;13.1;;
61570;SDS011;47463;49.884;10.010;2022-12-11T09:35:00;28.5;;;13.1;;
61570;SDS011;47463;49.884;10.010;2022-12-11T09:40:00;31;;;13;;
61570;SDS011;47463;49.884;10.010;2022-12-11T09:45:01;26.7;;;12.1;;
61570;SDS011;47463;49.884;10.010;2022-12-11T09:50:02;28;;;11.6;;
61570;SDS011;47463;49.884;10.010;2022-12-11T09:55:01;23.4;;;11.2;;
61570;SDS011;47463;49.884;10.010;2022-12-11T10:00:03;24.5;;;11.5;;
61570;SDS011;47463;49.884;10.010;2022-12-11T10:05:02;24.5;;;11.5;;
61570;SDS011;47463;49.884;10.010;2022-12-11T10:10:02;23.1;;;11;;
61570;SDS011;47463;49.884;10.010;2022-12-11T10:15:11;22.6;;;10.6;;
61570;SDS011;47463;49.884;10.010;2022-12-11T10:20:02;24.5;;;10;;
61570;SDS011;47463;49.884;10.010;2022-12-11T10:25:00;25;;;10.6;;
61570;SDS011;47463;49.884;10.010;2022-12-11T10:30:01;23.6;;;10.8;;
61570;SDS011;47463;49.884;10.010;2022-12-11T10:35:01;23.6;;;10.8;;
61570;SDS011;47463;49.884;10.010;2022-12-11T10:40:00;21.5;;;9.6;;
61570;SDS011;47463;49.884;10.010;2022-12-11T10:45:00;22.8;;;10;;
61570;SDS011;47463;49.884;10.010;2022-12-11T10:50:00;19.8;;;9.2;;
61570;SDS011;47463;49.884;10.010;2022-12-11T10:55:00;18.3;;;9.2;;
61570;SDS011;47463;49.884;10.010;2022-12-11T11:00:00;19.8;;;9.3;;
61570;SDS011;47463;49.884;10.010;2022-12-11T11:05:09;19.8;;;9.3;;
61570;SDS011;47463;49.884;10.010;2022-12-11T11:10:05;17.8;;;9.1;;
61570;SDS011;47463;49.884;10.010;2022-12-11T11:15:00;19.3;;;8.5;;
61570;SDS011;47463;49.884;10.010;2022-12-11T11:20:03;18.1;;;8.4;;
61570;SDS011;47463;49.884;10.010;2022-12-11T11:25:00;18.3;;;9.1;;
61570;SDS011;47463;49.884;10.010;2022-12-11T11:30:00;18.6;;;8.6;;
61570;SDS011;47463;49.884;10.010;2022-12-11T11:35:17;18.6;;;8.6;;
61570;SDS011;47463;49.884;10.010;2022-12-11T11:40:01;17.4;;;8.1;;
61570;SDS011;47463;49.884;10.010;2022-12-11T11:45:01;19.4;;;8.9;;
61570;SDS011;47463;49.884;10.010;2022-12-11T11:50:00;18;;;8.8;;
61570;SDS011;47463;49.884;10.010;2022-12-11T11:55:02;18;;;7.9;;
61570;SDS011;47463;49.884;10.010;2022-12-11T12:00:00;18.2;;;8.2;;
61570;SDS011;47463;49.884;10.010;2022-12-11T12:05:00;18.2;;;8.2;;
61570;SDS011;47463;49.884;10.010;2022-12-11T12:10:02;18.5;;;8.2;;
61570;SDS011;47463;49.884;10.010;2022-12-11T12:15:02;15.8;;;7.6;;
61570;SDS011;47463;49.884;10.010;2022-12-11T12:20:02;18.3;;;8;;
61570;SDS011;47463;49.884;10.010;2022-12-11T12:25:01;20.7;;;9.5;;
61570;SDS011;47463;49.884;10.010;2022-12-11T12:30:01;18.4;;;9.1;;
61570;SDS011;47463;49.884;10.010;2022-12-11T12:35:03;18.4;;;9.1;;
61570;SDS011;47463;49.884;10.010;2022-12-11T12:40:02;21.4;;;10;;
61570;SDS011;47463;49.884;10.010;2022-12-11T12:45:00;20.1;;;9.8;;
61570;SDS011;47463;49.884;10.010;2022-12-11T12:50:00;21.2;;;10;;
61570;SDS011;47463;49.884;10.010;2022-12-11T12:55:00;21;;;9.2;;
61570;SDS011;47463;49.884;10.010;2022-12-11T13:00:00;21.6;;;10.2;;
61570;SDS011;47463;49.884;10.010;2022-12-11T13:05:02;21.6;;;10.2;;
61570;SDS011;47463;49.884;10.010;2022-12-11T13:10:02;18.6;;;9.2;;
61570;SDS011;47463;49.884;10.010;2022-12-11T13:15:00;18.1;;;8.6;;
61570;SDS011;47463;49.884;10.010;2022-12-11T13:20:15;21.5;;;11.1;;
61570;SDS011;47463;49.884;10.010;2022-12-11T13:25:21;19;;;9;;
61570;SDS011;47463;49.884;10.010;2022-12-11T13:30:05;20;;;9.1;;
61570;SDS011;47463;49.884;10.010;2022-12-11T13:35:03;20;;;9.1;;
61570;SDS011;47463;49.884;10.010;2022-12-11T13:40:00;19.8;;;8.9;;
61570;SDS011;47463;49.884;10.010;2022-12-11T13:45:00;19.5;;;9.7;;
61570;SDS011;47463;49.884;10.010;2022-12-11T13:50:01;19.4;;;9.7;;
61570;SDS011;47463;49.884;10.010;2022-12-11T13:55:00;19.2;;;8.9;;
61570;SDS011;47463;49.884;10.010;2022-12-11T14:00:00;18.8;;;8.7;;
61570;SDS011;47463;49.884;10.010;2022-12-11T14:05:01;18.8;;;8.7;;
61570;SDS011;47463;49.884;10.010;2022-12-11T14:10:01;21.8;;;9.6;;
61570;SDS011;47463;49.884;10.010;2022-12-11T14:15:00;22.8;;;10.7;;
61570;SDS011;47463;49.884;10.010;2022-12-11T14:20:00;20.7;;;10.1;;
61570;SDS011;47463;49.884;10.010;2022-12-11T14:25:00;20.3;;;9.5;;
61570;SDS011;47463;49.884;10.010;2022-12-11T14:30:08;20.8;;;9.9;;
61570;SDS011;47463;49.884;10.010;2022-12-11T14:35:00;20.8;;;9.9;;
61570;SDS011;47463;49.884;10.010;2022-12-11T14:40:00;20.3;;;9.9;;
61570;SDS011;47463;49.884;10.010;2022-12-11T14:45:01;22.1;;;9.7;;
61570;SDS011;47463;49.884;10.010;2022-12-11T14:50:00;21.1;;;9.8;;
61570;SDS011;47463;49.884;10.010;2022-12-11T14:55:00;22.9;;;10.3;;
61570;SDS011;47463;49.884;10.010;2022-12-11T15:00:00;23.7;;;10.5;;
61570;SDS011;47463;49.884;10.010;2022-12-11T15:05:04;23.7;;;10.5;;
61570;SDS011;47463;49.884;10.010;2022-12-11T15:10:00;22.6;;;10.7;;
61570;SDS011;47463;49.884;10.010;2022-12-11T15:15:01;23.3;;;10.7;;
61570;SDS011;47463;49.884;10.010;2022-12-11T15:20:01;23.5;;;10.6;;
61570;SDS011;47463;49.884;10.010;2022-12-11T15:25:00;23;;;11;;
61570;SDS011;47463;49.884;10.010;2022-12-11T15:30:00;27.3;;;12.2;;
61570;SDS011;47463;49.884;10.010;2022-12-11T15:35:00;27.3;;;12.2;;
61570;SDS011;47463;49.884;10.010;2022-12-11T15:40:00;28.9;;;12;;
61570;SDS011;47463;49.884;10.010;2022-12-11T15:45:00;28.2;;;12.3;;
61570;SDS011;47463;49.884;10.010;2022-12-11T15:50:00;28;;;12.3;;
61570;SDS011;47463;49.884;10.010;2022-12-11T15:55:00;29.9;;;13.3;;
61570;SDS011;47463;49.884;10.010;2022-12-11T16:00:00;26.9;;;12.8;;
61570;SDS011;47463;49.884;10.010;2022-12-11T16:05:00;26.9;;;12.8;;
61570;SDS011;47463;49.884;10.010;2022-12-11T16:10:00;32.1;;;13.6;;
61570;SDS011;47463;49.884;10.010;2022-12-11T16:15:00;30.7;;;14.4;;
61570;SDS011;47463;49.884;10.010;2022-12-11T16:20:00;30.8;;;13.5;;
61570;SDS011;47463;49.884;10.010;2022-12-11T16:25:00;27.7;;;14;;
61570;SDS011;47463;49.884;10.010;2022-12-11T16:30:00;28.7;;;12.7;;
61570;SDS011;47463;49.884;10.010;2022-12-11T16:35:00;28.7;;;12.7;;
61570;SDS011;47463;49.884;10.010;2022-12-11T16:40:00;30.7;;;13.7;;
61570;SDS011;47463;49.884;10.010;2022-12-11T16:45:02;29.7;;;13.2;;
61570;SDS011;47463;49.884;10.010;2022-12-11T16:50:00;31.5;;;14.3;;
61570;SDS011;47463;49.884;10.010;2022-12-11T16:55:00;28.7;;;13;;
61570;SDS011;47463;49.884;10.010;2022-12-11T17:00:00;34.2;;;12.8;;
61570;SDS011;47463;49.884;10.010;2022-12-11T17:05:00;34.2;;;12.8;;
61570;SDS011;47463;49.884;10.010;2022-12-11T17:10:00;30.4;;;13.6;;
61570;SDS011;47463;49.884;10.010;2022-12-11T17:15:00;31;;;12.5;;
61570;SDS011;47463;49.884;10.010;2022-12-11T17:20:00;29.1;;;12.4;;
61570;SDS011;47463;49.884;10.010;2022-12-11T17:25:00;30.6;;;12.5;;
61570;SDS011;47463;49.884;10.010;2022-12-11T17:30:00;26.3;;;11.5;;
61570;SDS011;47463;49.884;10.010;2022-12-11T17:35:00;26.3;;;11.5;;
61570;SDS011;47463;49.884;10.010;2022-12-11T17:40:00;25.3;;;11.5;;
61570;SDS011;47463;49.884;10.010;2022-12-11T17:45:00;25.4;;;11.9;;
61570;SDS011;47463;49.884;10.010;2022-12-11T17:50:00;30.1;;;12.3;;
61570;SDS011;47463;49.884;10.010;2022-12-11T17:55:00;28.3;;;12.6;;
61570;SDS011;47463;49.884;10.010;2022-12-11T18:00:00;28.8;;;12.2;;
61570;SDS011;47463;49.884;10.010;2022-12-11T18:05:00;28.8;;;12.2;;
61570;SDS011;47463;49.884;10.010;2022-12-11T18:10:00;24.6;;;12.1;;
61570;SDS011;47463;49.884;10.010;2022-12-11T18:15:00;28.5;;;11.5;;
61570;SDS011;47463;49.884;10.010;2022-12-11T18:20:00;25.4;;;10.6;;
61570;SDS011;47463;49.884;10.010;2022-12-11T18:25:00;26.1;;;11.3;;
61570;SDS011;47463;49.884;10.010;2022-12-11T18:30:00;25.1;;;11.2;;
61570;SDS011;47463;49.884;10.010;2022-12-11T18:35:00;25.1;;;11.2;;
61570;SDS011;47463;49.884;10.010;2022-12-11T18:40:00;23.5;;;11.4;;
61570;SDS011;47463;49.884;10.010;2022-12-11T18:45:00;27.7;;;12.3;;
61570;SDS011;47463;49.884;10.010;2022-12-11T18:50:00;24.9;;;11;;
61570;SDS011;47463;49.884;10.010;2022-12-11T18:55:00;26;;;11.3;;
61570;SDS011;47463;49.884;10.010;2022-12-11T19:00:00;26.1;;;11;;
61570;SDS011;47463;49.884;10.010;2022-12-11T19:05:00;26.1;;;11;;
61570;SDS011;47463;49.884;10.010;2022-12-11T19:10:00;25.5;;;11.9;;
61570;SDS011;47463;49.884;10.010;2022-12-11T19:15:00;26.6;;;11.2;;
61570;SDS011;47463;49.884;10.010;2022-12-11T19:20:00;23;;;10;;
61570;SDS011;47463;49.884;10.010;2022-12-11T19:25:00;24.2;;;10;;
61570;SDS011;47463;49.884;10.010;2022-12-11T19:30:00;25.3;;;11.8;;
61570;SDS011;47463;49.884;10.010;2022-12-11T19:35:00;25.3;;;11.8;;
61570;SDS011;47463;49.884;10.010;2022-12-11T19:40:00;21.6;;;9.7;;
61570;SDS011;47463;49.884;10.010;2022-12-11T19:45:00;21.6;;;9.9;;
61570;SDS011;47463;49.884;10.010;2022-12-11T19:50:00;26.1;;;10.7;;
61570;SDS011;47463;49.884;10.010;2022-12-11T19:55:00;23.1;;;10.4;;
61570;SDS011;47463;49.884;10.010;2022-12-11T20:00:00;23.3;;;10.4;;
61570;SDS011;47463;49.884;10.010;2022-12-11T20:05:00;23.3;;;10.4;;
61570;SDS011;47463;49.884;10.010;2022-12-11T20:10:00;27.9;;;10.9;;
61570;SDS011;47463;49.884;10.010;2022-12-11T20:15:00;28;;;12.5;;
61570;SDS011;47463;49.884;10.010;2022-12-11T20:20:00;24.8;;;10.8;;
61570;SDS011;47463;49.884;10.010;2022-12-11T20:25:00;22.9;;;9.9;;
61570;SDS011;47463;49.884;10.010;2022-12-11T20:30:00;19.3;;;9.7;;
61570;SDS011;47463;49.884;10.010;2022-12-11T20:35:00;19.3;;;9.7;;
61570;SDS011;47463;49.884;10.010;2022-12-11T20:40:00;38.1;;;15;;
61570;SDS011;47463;49.884;10.010;2022-12-11T20:45:00;30.7;;;12.3;;
61570;SDS011;47463;49.884;10.010;2022-12-11T20:50:00;24.5;;;10;;
61570;SDS011;47463;49.884;10.010;2022-12-11T20:55:00;21.4;;;10.3;;
61570;SDS011;47463;49.884;10.010;2022-12-11T21:00:00;25.4;;;9.7;;
61570;SDS011;47463;49.884;10.010;2022-12-11T21:05:00;25.4;;;9.7;;
61570;SDS011;47463;49.884;10.010;2022-12-11T21:10:00;22.1;;;9.8;;
61570;SDS011;47463;49.884;10.010;2022-12-11T21:15:00;25.6;;;10.6;;
61570;SDS011;47463;49.884;10.010;2022-12-11T21:20:00;24.3;;;10.2;;
61570;SDS011;47463;49.884;10.010;2022-12-11T21:25:00;22;;;10.1;;
61570;SDS011;47463;49.884;10.010;2022-12-11T21:30:00;25.6;;;11.2;;
61570;SDS011;47463;49.884;10.010;2022-12-11T21:35:00;25.6;;;11.2;;
61570;SDS011;47463;49.884;10.010;2022-12-11T21:40:00;21.2;;;10;;
61570;SDS011;47463;49.884;10.010;2022-12-11T21:45:00;19.5;;;9.2;;
61570;SDS011;47463;49.884;10.010;2022-12-11T21:50:00;21.4;;;8.7;;
61570;SDS011;47463;49.884;10.010;2022-12-11T21:55:00;20.2;;;10.1;;
61570;SDS011;47463;49.884;10.010;2022-12-11T22:00:00;18.1;;;8.3;;
61570;SDS011;47463;49.884;10.010;2022-12-11T22:05:00;18.1;;;8.3;;
61570;SDS011;47463;49.884;10.010;2022-12-11T22:10:00;23.4;;;9.9;;
61570;SDS011;47463;49.884;10.010;2022-12-11T22:15:00;23.8;;;9.6;;
61570;SDS011;47463;49.884;10.010;2022-12-11T22:20:00;20.4;;;9.2;;
61570;SDS011;47463;49.884;10.010;2022-12-11T22:25:00;25.3;;;11.3;;
61570;SDS011;47463;49.884;10.010;2022-12-11T22:30:00;22.4;;;10.7;;
61570;SDS011;47463;49.884;10.010;2022-12-11T22:35:00;22.4;;;10.7;;
61570;SDS011;47463;49.884;10.010;2022-12-11T22:40:00;27.6;;;11.4;;
61570;SDS011;47463;49.884;10.010;2022-12-11T22:45:00;27.7;;;11;;
61570;SDS011;47463;49.884;10.010;2022-12-11T22:50:00;26.7;;;10.5;;
61570;SDS011;47463;49.884;10.010;2022-12-11T22:55:00;26.7;;;11.5;;
61570;SDS011;47463;49.884;10.010;2022-12-11T23:00:00;22.5;;;10.3;;
61570;SDS011;47463;49.884;10.010;2022-12-11T23:05:00;22.5;;;10.3;;
61570;SDS011;47463;49.884;10.010;2022-12-11T23:10:00;23.7;;;10.5;;
61570;SDS011;47463;49.884;10.010;2022-12-11T23:15:00;27.2;;;11.5;;
61570;SDS011;47463;49.884;10.010;2022-12-11T23:20:00;28.2;;;11.8;;
61570;SDS011;47463;49.884;10.010;2022-12-11T23:25:00;26.4;;;11.2;;
61570;SDS011;47463;49.884;10.010;2022-12-11T23:30:00;26.3;;;10.9;;
61570;SDS011;47463;49.884;10.010;2022-12-11T23:35:00;26.3;;;10.9;;
61570;SDS011;47463;49.884;10.010;2022-12-11T23:40:00;25.5;;;11.4;;
61570;SDS011;47463;49.884;10.010;2022-12-11T23:45:00;25.6;;;11.2;;
61570;SDS011;47463;49.884;10.010;2022-12-11T23:50:00;27.2;;;11.5;;
61570;SDS011;47463;49.884;10.010;2022-12-11T23:55:00;28.7;;;11.6;;
